Time,TemperatureF,DewpointF,PressureIn,WindDirection,WindDirectionDegrees,WindSpeedMPH,WindSpeedGustMPH,Humidity,HourlyPrecipIn,Conditions,Clouds,dailyrainin,SolarRadiationWatts/m^2,SoftwareType,DateUTC
2013-05-15 00:02:00,60.0,-99.9,-100.00,NNE,19,3.0,10.0,-999,0.00,,,0.00,0.000000,,2013-05-15 10:02:00,
2013-05-15 00:13:00,60.0,-99.9,-100.00,NNE,19,3.0,10.0,-999,0.00,,,0.00,0.000000,,2013-05-15 10:13:00,
2013-05-15 00:23:00,60.0,-99.9,-100.00,North,9,3.0,12.0,-999,0.00,,,0.00,0.000000,,2013-05-15 10:23:00,
2013-05-15 00:43:00,60.0,-99.9,-100.00,North,9,3.0,12.0,-999,0.00,,,0.00,0.000000,,2013-05-15 10:43:00,
2013-05-15 00:53:00,60.0,-99.9,-100.00,North,9,3.0,12.0,-999,0.00,,,0.00,0.000000,,2013-05-15 10:53:00,
2013-05-15 01:15:00,60.0,-99.9,-100.00,North,9,3.0,12.0,-999,0.00,,,0.00,0.000000,,2013-05-15 11:15:00,
2013-05-15 01:23:00,60.0,-99.9,-100.00,North,3,4.0,13.0,-999,0.00,,,-99.99,0.000000,,2013-05-15 11:23:00,
2013-05-15 02:03:00,60.0,-99.9,-100.00,North,3,4.0,13.0,-999,0.00,,,-99.99,0.000000,,2013-05-15 12:03:00,
2013-05-15 02:11:00,60.0,-99.9,-100.00,North,3,4.0,13.0,-999,0.00,,,-99.99,0.000000,,2013-05-15 12:11:00,
2013-05-15 02:17:00,60.0,-99.9,-100.00,North,3,4.0,13.0,-999,0.00,,,-99.99,0.000000,,2013-05-15 12:17:00,
2013-05-15 02:23:00,59.0,-99.9,-100.00,North,358,3.0,11.0,-999,0.00,,,0.00,0.000000,,2013-05-15 12:23:00,
2013-05-15 02:50:00,59.0,-99.9,-100.00,North,358,3.0,11.0,-999,0.00,,,0.00,0.000000,,2013-05-15 12:50:00,
2013-05-15 02:58:00,59.0,-99.9,-100.00,North,358,3.0,11.0,-999,0.00,,,0.00,0.000000,,2013-05-15 12:58:00,
2013-05-15 03:12:00,59.0,-99.9,-100.00,North,358,3.0,11.0,-999,0.00,,,0.00,0.000000,,2013-05-15 13:12:00,
2013-05-15 03:20:00,59.0,-99.9,-100.00,North,358,3.0,11.0,-999,0.00,,,0.00,0.000000,,2013-05-15 13:20:00,
2013-05-15 03:48:00,59.0,55.0,-100.00,North,358,4.0,14.0,86,0.00,,,0.00,0.000000,,2013-05-15 13:48:00,
2013-05-15 04:03:00,59.0,55.0,-100.00,North,358,4.0,14.0,86,0.00,,,0.00,0.000000,,2013-05-15 14:03:00,
2013-05-15 04:21:00,59.0,55.0,-100.00,North,358,4.0,14.0,86,0.00,,,0.00,0.000000,,2013-05-15 14:21:00,
2013-05-15 04:50:00,59.0,53.0,-100.00,North,355,4.0,12.0,80,0.00,,,0.00,0.000000,,2013-05-15 14:50:00,
2013-05-15 04:57:00,59.0,53.0,-100.00,North,355,4.0,12.0,80,0.00,,,0.00,0.000000,,2013-05-15 14:57:00,
2013-05-15 05:12:00,59.0,53.0,-100.00,North,355,4.0,12.0,80,0.00,,,0.00,0.000000,,2013-05-15 15:12:00,
2013-05-15 05:22:00,59.0,53.0,-100.00,North,355,4.0,12.0,80,0.00,,,0.00,0.000000,,2013-05-15 15:22:00,
2013-05-15 05:48:00,58.0,52.0,-100.00,North,353,3.0,10.0,80,0.00,,,0.00,0.000000,,2013-05-15 15:48:00,
2013-05-15 06:05:00,58.0,52.0,-100.00,North,353,3.0,10.0,80,0.00,,,0.00,0.000000,,2013-05-15 16:05:00,
2013-05-15 06:16:00,58.0,52.0,-100.00,North,353,3.0,10.0,80,0.00,,,0.00,0.000000,,2013-05-15 16:16:00,
2013-05-15 06:57:00,58.0,52.0,-100.00,North,350,3.0,9.0,81,0.00,,,0.00,2.000000,,2013-05-15 16:57:00,
2013-05-15 07:06:00,58.0,52.0,-100.00,North,350,3.0,9.0,81,0.00,,,0.00,2.000000,,2013-05-15 17:06:00,
2013-05-15 07:14:00,58.0,52.0,-100.00,North,350,3.0,9.0,81,0.00,,,0.00,2.000000,,2013-05-15 17:14:00,
2013-05-15 07:48:00,59.0,52.0,-100.00,North,2,3.0,12.0,79,0.00,,,0.00,43.000000,,2013-05-15 17:48:00,
2013-05-15 07:57:00,59.0,52.0,-100.00,North,2,3.0,12.0,79,0.00,,,0.00,43.000000,,2013-05-15 17:57:00,
2013-05-15 08:04:00,59.0,52.0,-100.00,North,2,3.0,12.0,79,0.00,,,0.00,43.000000,,2013-05-15 18:04:00,
2013-05-15 08:13:00,59.0,52.0,-100.00,North,2,3.0,12.0,79,0.00,,,0.00,43.000000,,2013-05-15 18:13:00,
2013-05-15 08:22:00,59.0,52.0,-100.00,North,2,3.0,12.0,79,0.00,,,0.00,43.000000,,2013-05-15 18:22:00,
2013-05-15 09:06:00,63.0,53.0,-100.00,NNE,19,4.0,16.0,69,0.00,,,0.00,295.000000,,2013-05-15 19:06:00,
2013-05-15 09:13:00,63.0,53.0,-100.00,NNE,19,4.0,16.0,69,0.00,,,0.00,295.000000,,2013-05-15 19:13:00,
2013-05-15 09:21:00,63.0,53.0,-100.00,NNE,19,4.0,16.0,69,0.00,,,0.00,295.000000,,2013-05-15 19:21:00,
2013-05-15 09:48:00,66.0,51.0,-100.00,NNE,28,4.0,20.0,59,0.00,,,0.00,431.000000,,2013-05-15 19:48:00,
2013-05-15 09:56:00,66.0,51.0,-100.00,NNE,28,4.0,20.0,59,0.00,,,0.00,431.000000,,2013-05-15 19:56:00,
2013-05-15 10:13:00,66.0,51.0,-100.00,NNE,28,4.0,20.0,59,0.00,,,0.00,431.000000,,2013-05-15 20:13:00,
2013-05-15 10:22:00,66.0,51.0,-100.00,NNE,28,4.0,20.0,59,0.00,,,0.00,431.000000,,2013-05-15 20:22:00,
2013-05-15 10:23:00,67.0,64.0,-100.00,ESE,105,4.0,17.0,89,0.00,,,0.00,412.000000,,2013-05-15 20:23:00,
2013-05-15 10:47:00,67.0,64.0,-100.00,ESE,105,4.0,17.0,89,0.00,,,0.00,412.000000,,2013-05-15 20:47:00,
2013-05-15 10:55:00,67.0,64.0,-100.00,ESE,105,4.0,17.0,89,0.00,,,0.00,412.000000,,2013-05-15 20:55:00,
2013-05-15 11:04:00,67.0,64.0,-100.00,ESE,105,4.0,17.0,89,0.00,,,0.00,412.000000,,2013-05-15 21:04:00,
2013-05-15 11:14:00,67.0,64.0,-100.00,ESE,105,4.0,17.0,89,0.00,,,0.00,412.000000,,2013-05-15 21:14:00,
2013-05-15 11:23:00,63.0,58.0,-100.00,ENE,65,4.0,14.0,85,0.00,,,0.00,218.000000,,2013-05-15 21:23:00,
2013-05-15 11:52:00,63.0,58.0,-100.00,ENE,65,4.0,14.0,85,0.00,,,0.00,218.000000,,2013-05-15 21:52:00,
2013-05-15 11:59:00,63.0,58.0,-100.00,ENE,65,4.0,14.0,85,0.00,,,0.00,218.000000,,2013-05-15 21:59:00,
2013-05-15 12:07:00,63.0,58.0,-100.00,ENE,65,4.0,14.0,85,0.00,,,0.00,218.000000,,2013-05-15 22:07:00,
2013-05-15 12:15:00,63.0,58.0,-100.00,ENE,65,4.0,14.0,85,0.00,,,0.00,218.000000,,2013-05-15 22:15:00,
2013-05-15 12:51:00,63.0,56.0,-100.00,NE,49,4.0,16.0,78,0.00,,,0.00,225.000000,,2013-05-15 22:51:00,
2013-05-15 12:58:00,63.0,56.0,-100.00,NE,49,4.0,16.0,78,0.00,,,0.00,225.000000,,2013-05-15 22:58:00,
2013-05-15 13:13:00,63.0,56.0,-100.00,NE,49,4.0,16.0,78,0.00,,,0.00,225.000000,,2013-05-15 23:13:00,
2013-05-15 13:22:00,63.0,56.0,-100.00,NE,49,4.0,16.0,78,0.00,,,0.00,225.000000,,2013-05-15 23:22:00,
2013-05-15 13:50:00,65.0,54.0,-100.00,ENE,71,4.0,19.0,68,0.00,,,0.00,370.000000,,2013-05-15 23:50:00,
2013-05-15 13:59:00,65.0,54.0,-100.00,ENE,71,4.0,19.0,68,0.00,,,0.00,370.000000,,2013-05-15 23:59:00,
2013-05-15 14:15:00,65.0,54.0,-100.00,ENE,71,4.0,19.0,68,0.00,,,0.00,370.000000,,2013-05-16 00:15:00,
2013-05-15 14:22:00,65.0,54.0,-100.00,ENE,71,4.0,19.0,68,0.00,,,0.00,370.000000,,2013-05-16 00:22:00,
2013-05-15 14:51:00,67.0,60.0,-100.00,ENE,70,4.0,16.0,77,0.00,,,0.00,549.000000,,2013-05-16 00:51:00,
2013-05-15 14:57:00,67.0,60.0,-100.00,ENE,70,4.0,16.0,77,0.00,,,0.00,549.000000,,2013-05-16 00:57:00,
2013-05-15 15:05:00,67.0,60.0,-100.00,ENE,70,4.0,16.0,77,0.00,,,0.00,549.000000,,2013-05-16 01:05:00,
2013-05-15 15:13:00,67.0,60.0,-100.00,ENE,70,4.0,16.0,77,0.00,,,0.00,549.000000,,2013-05-16 01:13:00,
2013-05-15 15:23:00,65.0,60.0,-100.00,East,83,4.0,13.0,83,0.00,,,0.00,247.000000,,2013-05-16 01:23:00,
2013-05-15 15:49:00,65.0,60.0,-100.00,East,83,4.0,13.0,83,0.00,,,0.00,247.000000,,2013-05-16 01:49:00,
2013-05-15 15:58:00,65.0,60.0,-100.00,East,83,4.0,13.0,83,0.00,,,0.00,247.000000,,2013-05-16 01:58:00,
2013-05-15 16:04:00,65.0,60.0,-100.00,East,83,4.0,13.0,83,0.00,,,0.00,247.000000,,2013-05-16 02:04:00,
2013-05-15 16:13:00,65.0,60.0,-100.00,East,83,4.0,13.0,83,0.00,,,0.00,247.000000,,2013-05-16 02:13:00,
2013-05-15 17:14:00,65.0,56.0,-100.00,NE,55,4.0,16.0,74,0.00,,,0.00,358.000000,,2013-05-16 03:14:00,
2013-05-15 17:21:00,65.0,56.0,-100.00,NE,55,4.0,16.0,74,0.00,,,0.00,358.000000,,2013-05-16 03:21:00,
2013-05-15 17:46:00,65.0,59.0,-100.00,NE,37,4.0,16.0,81,0.00,,,0.00,243.000000,,2013-05-16 03:46:00,
2013-05-15 17:56:00,65.0,59.0,-100.00,NE,37,4.0,16.0,81,0.00,,,0.00,243.000000,,2013-05-16 03:56:00,
2013-05-15 18:02:00,65.0,59.0,-100.00,NE,37,4.0,16.0,81,0.00,,,0.00,243.000000,,2013-05-16 04:02:00,
2013-05-15 18:12:00,65.0,59.0,-100.00,NE,37,4.0,16.0,81,0.00,,,0.00,243.000000,,2013-05-16 04:12:00,
2013-05-15 18:22:00,65.0,59.0,-100.00,NE,37,4.0,16.0,81,0.00,,,0.00,243.000000,,2013-05-16 04:22:00,
2013-05-15 18:42:00,64.0,58.0,-100.00,NNE,29,3.0,11.0,81,0.00,,,0.00,130.000000,,2013-05-16 04:42:00,
2013-05-15 18:53:00,64.0,58.0,-100.00,NNE,29,3.0,11.0,81,0.00,,,0.00,130.000000,,2013-05-16 04:53:00,
2013-05-15 19:02:00,64.0,58.0,-100.00,NNE,29,3.0,11.0,81,0.00,,,0.00,130.000000,,2013-05-16 05:02:00,
2013-05-15 19:12:00,64.0,58.0,-100.00,NNE,29,3.0,11.0,81,0.00,,,0.00,130.000000,,2013-05-16 05:12:00,
2013-05-15 19:22:00,64.0,58.0,-100.00,NNE,29,3.0,11.0,81,0.00,,,0.00,130.000000,,2013-05-16 05:22:00,
2013-05-15 19:42:00,62.0,58.0,-100.00,North,1,3.0,12.0,86,0.00,,,0.00,18.000000,,2013-05-16 05:42:00,
2013-05-15 19:52:00,62.0,58.0,-100.00,North,1,3.0,12.0,86,0.00,,,0.00,18.000000,,2013-05-16 05:52:00,
2013-05-15 20:01:00,62.0,58.0,-100.00,North,1,3.0,12.0,86,0.00,,,0.00,18.000000,,2013-05-16 06:01:00,
2013-05-15 20:12:00,62.0,58.0,-100.00,North,1,3.0,12.0,86,0.00,,,0.00,18.000000,,2013-05-16 06:12:00,
2013-05-15 20:22:00,62.0,58.0,-100.00,North,1,3.0,12.0,86,0.00,,,0.00,18.000000,,2013-05-16 06:22:00,
2013-05-15 20:23:00,62.0,59.0,-100.00,North,9,3.0,9.0,90,0.00,,,0.00,0.000000,,2013-05-16 06:23:00,
2013-05-15 20:43:00,62.0,59.0,-100.00,North,9,3.0,9.0,90,0.00,,,0.00,0.000000,,2013-05-16 06:43:00,
2013-05-15 20:53:00,62.0,59.0,-100.00,North,9,3.0,9.0,90,0.00,,,0.00,0.000000,,2013-05-16 06:53:00,
2013-05-15 21:02:00,62.0,59.0,-100.00,North,9,3.0,9.0,90,0.00,,,0.00,0.000000,,2013-05-16 07:02:00,
2013-05-15 21:12:00,62.0,59.0,-100.00,North,9,3.0,9.0,90,0.00,,,0.00,0.000000,,2013-05-16 07:12:00,
2013-05-15 21:23:00,61.0,57.0,-100.00,NNE,23,3.0,14.0,88,0.00,,,0.00,0.000000,,2013-05-16 07:23:00,
2013-05-15 21:44:00,61.0,57.0,-100.00,NNE,23,3.0,14.0,88,0.00,,,0.00,0.000000,,2013-05-16 07:44:00,
2013-05-15 21:54:00,61.0,57.0,-100.00,NNE,23,3.0,14.0,88,0.00,,,0.00,0.000000,,2013-05-16 07:54:00,
2013-05-15 22:03:00,61.0,57.0,-100.00,NNE,23,3.0,14.0,88,0.00,,,0.00,0.000000,,2013-05-16 08:03:00,
2013-05-15 22:13:00,61.0,57.0,-100.00,NNE,23,3.0,14.0,88,0.00,,,0.00,0.000000,,2013-05-16 08:13:00,
2013-05-15 22:23:00,61.0,57.0,-100.00,North,4,4.0,13.0,86,0.00,,,0.00,0.000000,,2013-05-16 08:23:00,
2013-05-15 22:45:00,61.0,57.0,-100.00,North,4,4.0,13.0,86,0.00,,,0.00,0.000000,,2013-05-16 08:45:00,
2013-05-15 22:55:00,61.0,57.0,-100.00,North,4,4.0,13.0,86,0.00,,,0.00,0.000000,,2013-05-16 08:55:00,
2013-05-15 23:04:00,61.0,57.0,-100.00,North,4,4.0,13.0,86,0.00,,,0.00,0.000000,,2013-05-16 09:04:00,
2013-05-15 23:14:00,61.0,57.0,-100.00,North,4,4.0,13.0,86,0.00,,,0.00,0.000000,,2013-05-16 09:14:00,
2013-05-15 23:23:00,61.0,55.0,-100.00,North,1,4.0,16.0,81,0.00,,,0.00,0.000000,,2013-05-16 09:23:00,
2013-05-15 23:45:00,61.0,55.0,-100.00,North,1,4.0,16.0,81,0.00,,,0.00,0.000000,,2013-05-16 09:45:00,
2013-05-15 23:55:00,61.0,55.0,-100.00,North,1,4.0,16.0,81,0.00,,,0.00,0.000000,,2013-05-16 09:55:00,